Terminal Aerodrome Forecast
Issued by NWS

Home | Current Version | Previous Version | Text Only | Print | Product List | Glossary On
Versions: 1 2 3 4 5 6 7 8 9 10 11 12 13 14 15 16 17 18 19 20 21 22
000
FTUS46 KSEW 190500
TAFHQM
TAF
KHQM 190520Z 1906/2006 06007KT P6SM SCT100 BKN200
     FM190800 10008KT P6SM BKN100 OVC150
     FM191200 14012KT P6SM BKN050 OVC080
     FM191400 18016G28KT 5SM -RA OVC030
     FM191900 20013G22KT 5SM -SHRA BR SCT022 OVC035
      TEMPO 1919/1923 4SM SHRA OVC022
     FM200000 24015G25KT P6SM -SHRA BKN030 BKN050
     FM200400 22013KT P6SM VCSH BKN035 BKN050=

USA.gov is the U.S. government's official web portal to all federal, state and local government web resources and services.